Time;durP1;ratioP1;P1;durP2;ratioP2;P2;SDS_P1;SDS_P2;PMS_P1;PMS_P2;Temp;Humidity;BMP_temperature;BMP_pressure;BME280_temperature;BME280_humidity;BME280_pressure;Samples;Min_cycle;Max_cycle;Signal;HPM_P1;HPM_P2
2021/07/23 00:00:34;;;;;;;15.93;10.40;;;17.60;36.90;;;;;;5054082;28;20846;-77
2021/07/23 00:02:59;;;;;;;13.00;10.17;;;17.40;37.30;;;;;;5052606;28;20409;-75
2021/07/23 00:05:25;;;;;;;15.50;10.35;;;17.40;37.30;;;;;;5033955;28;20866;-76
2021/07/23 00:07:50;;;;;;;17.75;10.25;;;17.40;37.30;;;;;;5051660;28;20393;-76
2021/07/23 00:10:16;;;;;;;18.27;10.57;;;17.30;37.80;;;;;;5050996;28;20413;-76
2021/07/23 00:12:42;;;;;;;14.13;10.30;;;17.20;38.10;;;;;;5050360;28;20835;-76
2021/07/23 00:15:08;;;;;;;20.33;11.23;;;17.20;38.50;;;;;;5051178;28;20905;-77
2021/07/23 00:17:34;;;;;;;16.63;10.52;;;17.20;38.70;;;;;;5050080;28;20498;-77
2021/07/23 00:19:59;;;;;;;15.23;10.65;;;17.20;38.60;;;;;;5053902;28;20385;-74
2021/07/23 00:22:25;;;;;;;15.93;10.60;;;17.10;39.00;;;;;;5050892;28;20436;-77
2021/07/23 00:24:51;;;;;;;17.93;11.20;;;17.10;39.10;;;;;;5050779;28;20382;-77
2021/07/23 00:27:17;;;;;;;15.83;11.30;;;17.00;39.60;;;;;;5050364;28;20545;-75
2021/07/23 00:29:43;;;;;;;13.97;10.73;;;16.90;39.70;;;;;;5040041;28;20763;-77
2021/07/23 00:32:08;;;;;;;17.03;10.83;;;16.90;40.00;;;;;;5013185;28;20390;-75
2021/07/23 00:34:34;;;;;;;13.57;9.97;;;16.90;39.70;;;;;;5030656;28;20484;-75
2021/07/23 00:36:59;;;;;;;15.93;10.50;;;16.90;39.30;;;;;;5033226;28;20492;-75
2021/07/23 00:39:25;;;;;;;16.02;10.30;;;16.70;39.80;;;;;;5035145;28;20391;-76
2021/07/23 00:41:50;;;;;;;15.40;10.40;;;16.80;39.40;;;;;;5048656;28;20473;-76
2021/07/23 00:44:16;;;;;;;14.53;9.90;;;16.80;39.60;;;;;;5055271;28;20431;-77
2021/07/23 00:46:42;;;;;;;15.90;9.87;;;16.80;39.30;;;;;;5036976;28;20400;-75
2021/07/23 00:49:08;;;;;;;14.50;9.95;;;16.70;39.30;;;;;;5054319;28;20386;-77
2021/07/23 00:51:34;;;;;;;14.18;9.50;;;16.70;39.30;;;;;;5052510;28;20432;-74
2021/07/23 00:54:01;;;;;;;12.63;9.68;;;16.60;39.70;;;;;;5052619;28;20442;-76
2021/07/23 00:56:27;;;;;;;14.63;9.40;;;16.70;39.00;;;;;;5053210;28;20504;-74
2021/07/23 00:58:54;;;;;;;13.15;9.40;;;16.70;38.80;;;;;;5039581;28;20875;-75
2021/07/23 01:01:20;;;;;;;14.65;9.63;;;16.60;39.40;;;;;;5033350;28;20431;-75
2021/07/23 01:03:47;;;;;;;13.93;9.50;;;16.50;39.70;;;;;;5033623;28;20383;-73
2021/07/23 01:06:12;;;;;;;11.70;9.15;;;16.50;39.70;;;;;;5046743;28;20390;-75
2021/07/23 01:08:38;;;;;;;14.07;9.60;;;16.50;39.80;;;;;;5035385;28;20408;-75
2021/07/23 01:11:04;;;;;;;14.87;9.40;;;16.30;40.20;;;;;;5053200;28;20439;-76
2021/07/23 01:13:30;;;;;;;13.13;9.97;;;16.40;39.70;;;;;;5053519;28;20480;-75
2021/07/23 01:15:55;;;;;;;13.50;9.47;;;16.50;39.20;;;;;;5052969;28;20441;-77
2021/07/23 01:18:21;;;;;;;14.33;9.67;;;16.50;39.30;;;;;;5053402;28;20424;-76
2021/07/23 01:20:47;;;;;;;14.00;9.20;;;16.30;39.70;;;;;;5053065;28;20397;-76
2021/07/23 01:23:22;;;;;;;14.25;9.75;;;16.30;39.90;;;;;;5052974;28;20417;-76
2021/07/23 01:25:48;;;;;;;15.18;9.35;;;16.30;40.20;;;;;;5053046;28;20399;-76
2021/07/23 01:28:14;;;;;;;13.30;9.65;;;16.30;39.70;;;;;;5052921;28;20858;-76
2021/07/23 01:30:40;;;;;;;14.20;9.75;;;16.30;40.00;;;;;;5034188;28;20376;-75
2021/07/23 01:33:05;;;;;;;15.50;9.50;;;16.30;39.90;;;;;;5032948;28;20971;-76
2021/07/23 01:35:31;;;;;;;16.88;9.10;;;16.30;40.20;;;;;;5033053;28;20379;-75
2021/07/23 01:37:59;;;;;;;15.90;9.57;;;16.20;40.10;;;;;;5034861;28;20389;-75
2021/07/23 01:40:25;;;;;;;13.30;8.63;;;16.30;39.90;;;;;;5052677;28;20791;-74
2021/07/23 01:42:51;;;;;;;11.47;8.97;;;16.30;39.70;;;;;;5051474;28;20472;-75
2021/07/23 01:45:17;;;;;;;14.27;9.45;;;16.10;40.10;;;;;;5052732;28;20723;-74
2021/07/23 01:47:43;;;;;;;12.77;9.15;;;16.10;40.80;;;;;;5052732;28;20746;-74
2021/07/23 01:50:09;;;;;;;11.82;9.20;;;16.10;40.20;;;;;;5053074;28;20397;-75
2021/07/23 01:52:34;;;;;;;18.27;9.00;;;16.20;39.90;;;;;;5054634;28;20385;-76
2021/07/23 01:55:00;;;;;;;12.40;8.82;;;16.10;40.20;;;;;;5053645;28;20928;-75
2021/07/23 01:57:26;;;;;;;15.30;9.93;;;16.10;40.10;;;;;;5052560;28;20409;-75
2021/07/23 01:59:51;;;;;;;11.60;9.00;;;16.10;39.90;;;;;;5052883;28;20390;-76
2021/07/23 02:02:17;;;;;;;13.87;9.50;;;16.10;40.30;;;;;;5052165;28;20409;-75
2021/07/23 02:04:42;;;;;;;14.03;9.57;;;16.00;40.10;;;;;;5052370;28;20882;-75
2021/07/23 02:07:08;;;;;;;14.77;8.95;;;16.00;40.40;;;;;;5052567;28;20866;-76
2021/07/23 02:09:33;;;;;;;10.67;8.80;;;16.00;40.60;;;;;;5052911;28;20868;-74
2021/07/23 02:11:59;;;;;;;16.37;9.27;;;16.00;40.70;;;;;;5052155;28;20373;-75
2021/07/23 02:14:28;;;;;;;15.67;10.10;;;15.90;40.90;;;;;;5052139;28;20443;-76
2021/07/23 02:16:54;;;;;;;14.85;9.63;;;15.90;41.40;;;;;;5052300;28;20403;-76
2021/07/23 02:19:20;;;;;;;14.80;9.00;;;15.90;41.10;;;;;;5052247;28;20404;-76
2021/07/23 02:21:45;;;;;;;13.57;9.50;;;15.90;42.00;;;;;;5052224;28;20377;-75
2021/07/23 02:24:11;;;;;;;15.27;10.20;;;15.80;42.60;;;;;;5052053;28;20456;-75
2021/07/23 02:26:37;;;;;;;18.30;9.50;;;15.60;43.50;;;;;;5051993;28;20417;-75
2021/07/23 02:29:02;;;;;;;16.80;9.70;;;15.70;43.10;;;;;;5046786;28;20390;-76
2021/07/23 02:31:28;;;;;;;12.80;10.53;;;15.50;43.90;;;;;;5031832;28;20458;-76
2021/07/23 02:33:53;;;;;;;14.60;9.48;;;15.40;45.00;;;;;;5049666;28;20943;-75
2021/07/23 02:36:19;;;;;;;15.50;10.20;;;15.50;44.50;;;;;;5051845;28;20407;-74
2021/07/23 02:38:45;;;;;;;14.15;10.40;;;15.60;43.50;;;;;;5050717;28;20488;-75
2021/07/23 02:41:11;;;;;;;14.75;10.18;;;15.60;43.40;;;;;;5051865;28;20380;-75
2021/07/23 02:43:36;;;;;;;14.40;9.93;;;15.70;43.20;;;;;;5051930;28;20417;-76
2021/07/23 02:46:02;;;;;;;15.50;9.70;;;15.60;43.20;;;;;;5051581;28;20393;-75
2021/07/23 02:48:28;;;;;;;17.80;9.90;;;15.60;43.10;;;;;;5050145;28;20876;-75
2021/07/23 02:50:54;;;;;;;11.80;9.30;;;15.60;43.90;;;;;;5051209;28;20480;-74
2021/07/23 02:53:20;;;;;;;14.38;10.40;;;15.60;43.50;;;;;;5033720;28;20519;-74
2021/07/23 02:55:49;;;;;;;16.65;9.70;;;15.60;43.50;;;;;;5051451;28;20427;-74
2021/07/23 02:58:14;;;;;;;16.90;10.30;;;15.50;44.50;;;;;;5051577;28;20457;-75
2021/07/23 03:00:40;;;;;;;18.60;10.63;;;15.50;44.70;;;;;;5050830;28;20834;-77
2021/07/23 03:03:05;;;;;;;17.83;10.73;;;15.30;45.80;;;;;;5032755;28;20908;-76
2021/07/23 03:05:31;;;;;;;15.88;9.93;;;15.30;46.10;;;;;;5051445;28;20427;-76
2021/07/23 03:07:57;;;;;;;16.60;10.80;;;15.30;45.70;;;;;;5051368;28;20456;-76
2021/07/23 03:10:22;;;;;;;17.10;10.50;;;15.30;46.10;;;;;;5051030;28;20468;-74
2021/07/23 03:12:48;;;;;;;15.20;11.10;;;15.20;46.50;;;;;;5051235;28;20378;-75
2021/07/23 03:15:14;;;;;;;14.48;10.90;;;15.20;46.10;;;;;;5050834;28;20397;-74
2021/07/23 03:17:40;;;;;;;17.03;10.20;;;15.20;46.40;;;;;;5050829;28;20414;-75
2021/07/23 03:20:06;;;;;;;16.95;10.90;;;15.20;46.50;;;;;;5050743;28;20765;-75
2021/07/23 03:22:32;;;;;;;18.70;11.15;;;15.10;46.70;;;;;;5050707;28;20413;-75
2021/07/23 03:24:58;;;;;;;17.73;11.25;;;15.00;47.80;;;;;;5050711;28;20743;-75
2021/07/23 03:27:23;;;;;;;16.47;11.10;;;15.00;47.80;;;;;;5050924;28;20476;-75
2021/07/23 03:29:49;;;;;;;16.87;10.87;;;14.90;48.90;;;;;;5050625;28;20719;-77
2021/07/23 03:32:14;;;;;;;17.27;11.27;;;15.00;48.10;;;;;;5050514;28;20392;-76
2021/07/23 03:34:40;;;;;;;17.65;11.02;;;15.10;47.50;;;;;;5051102;28;20389;-76
2021/07/23 03:37:06;;;;;;;16.07;11.20;;;15.20;47.20;;;;;;5050615;28;20494;-77
2021/07/23 03:39:31;;;;;;;19.83;11.30;;;15.10;47.10;;;;;;5050593;28;20435;-75
2021/07/23 03:41:57;;;;;;;17.60;10.90;;;15.10;47.10;;;;;;5050351;28;20397;-74
2021/07/23 03:44:22;;;;;;;15.00;11.30;;;15.10;48.00;;;;;;5050555;28;20381;-76
2021/07/23 03:46:48;;;;;;;17.13;11.10;;;15.10;47.40;;;;;;5050714;28;20893;-76
2021/07/23 03:49:13;;;;;;;15.23;11.10;;;15.20;46.90;;;;;;5050582;28;20393;-75
2021/07/23 03:51:39;;;;;;;18.83;10.80;;;15.20;47.00;;;;;;5050388;28;20397;-74
2021/07/23 03:54:05;;;;;;;18.50;11.73;;;15.00;48.20;;;;;;5050413;28;20385;-74
2021/07/23 03:56:30;;;;;;;17.40;11.37;;;15.00;48.10;;;;;;5050403;28;20480;-76
2021/07/23 03:58:56;;;;;;;18.77;11.43;;;15.00;48.30;;;;;;5050573;28;20397;-75
2021/07/23 04:01:21;;;;;;;13.57;10.30;;;15.00;48.00;;;;;;5050615;28;20385;-74
2021/07/23 04:03:47;;;;;;;15.93;10.83;;;14.90;48.50;;;;;;5050580;28;20472;-74
2021/07/23 04:06:13;;;;;;;16.77;11.52;;;14.90;49.10;;;;;;5050037;28;20393;-75
2021/07/23 04:08:40;;;;;;;17.95;11.90;;;14.70;50.00;;;;;;5050231;28;20378;-75
2021/07/23 04:11:06;;;;;;;18.10;11.98;;;14.60;51.10;;;;;;5049825;28;20397;-75
2021/07/23 04:13:32;;;;;;;24.25;11.60;;;14.70;51.00;;;;;;5052470;28;20408;-74
2021/07/23 04:15:58;;;;;;;16.90;11.90;;;14.80;50.40;;;;;;5054191;28;20443;-75
2021/07/23 04:18:23;;;;;;;17.60;11.80;;;14.90;49.30;;;;;;5054671;28;20775;-75
2021/07/23 04:20:49;;;;;;;16.00;10.70;;;15.00;48.60;;;;;;5053972;28;20468;-75
2021/07/23 04:23:14;;;;;;;18.13;11.10;;;15.10;48.00;;;;;;5053736;28;20396;-74
2021/07/23 04:25:40;;;;;;;22.10;10.90;;;15.10;48.00;;;;;;5054108;28;20782;-74
2021/07/23 04:28:06;;;;;;;15.13;10.77;;;15.10;47.80;;;;;;5053837;28;20703;-73
2021/07/23 04:30:33;;;;;;;21.20;11.63;;;15.10;47.50;;;;;;5053817;28;20392;-75
2021/07/23 04:32:58;;;;;;;19.15;11.25;;;15.10;47.70;;;;;;5052967;28;20396;-75
2021/07/23 04:35:24;;;;;;;16.70;11.70;;;15.10;47.50;;;;;;5054304;28;20381;-74
2021/07/23 04:37:49;;;;;;;31.15;19.38;;;15.10;47.50;;;;;;5053268;28;20491;-76
2021/07/23 04:40:15;;;;;;;20.25;14.00;;;15.10;48.10;;;;;;5053255;28;20742;-74
2021/07/23 04:42:40;;;;;;;20.90;11.50;;;15.10;48.10;;;;;;5053345;28;20392;-74
2021/07/23 04:45:07;;;;;;;20.27;13.60;;;15.20;47.50;;;;;;5053583;28;20389;-74
2021/07/23 04:47:33;;;;;;;20.73;12.95;;;15.20;47.70;;;;;;5053036;28;20404;-74
2021/07/23 04:49:58;;;;;;;32.55;14.70;;;15.30;47.70;;;;;;5052947;28;20397;-75
2021/07/23 04:52:24;;;;;;;20.48;11.63;;;15.30;46.90;;;;;;5052938;28;20455;-75
2021/07/23 04:54:49;;;;;;;20.00;12.15;;;15.40;45.90;;;;;;5053413;28;20396;-75
2021/07/23 04:57:18;;;;;;;19.47;11.90;;;15.50;45.50;;;;;;5052876;28;20405;-74
2021/07/23 04:59:44;;;;;;;24.63;12.13;;;15.50;45.80;;;;;;5052939;28;20871;-74
2021/07/23 05:02:10;;;;;;;15.10;12.30;;;15.50;45.70;;;;;;5053004;28;20421;-77
2021/07/23 05:04:38;;;;;;;17.80;12.10;;;15.60;45.00;;;;;;5054028;28;20740;-76
2021/07/23 05:07:04;;;;;;;19.30;11.32;;;15.60;45.00;;;;;;5053059;28;20496;-77
2021/07/23 05:09:30;;;;;;;19.40;11.90;;;15.70;44.60;;;;;;5056761;28;20815;-76
2021/07/23 05:11:55;;;;;;;17.40;11.20;;;15.70;44.80;;;;;;5053594;28;20437;-76
2021/07/23 05:14:22;;;;;;;16.53;11.13;;;15.80;43.90;;;;;;5052507;28;20397;-76
2021/07/23 05:16:48;;;;;;;19.77;11.98;;;15.80;44.00;;;;;;5054760;28;20525;-77
2021/07/23 05:19:15;;;;;;;19.05;11.38;;;15.80;44.80;;;;;;5052604;28;20816;-76
2021/07/23 05:21:41;;;;;;;22.67;12.50;;;15.90;44.30;;;;;;5052658;28;20381;-76
2021/07/23 05:24:07;;;;;;;15.65;11.55;;;16.00;43.10;;;;;;5052720;28;20392;-76
2021/07/23 05:26:38;;;;;;;21.63;12.52;;;16.00;43.40;;;;;;5051372;28;20396;-77
2021/07/23 05:29:04;;;;;;;19.83;12.70;;;16.00;43.60;;;;;;5036586;28;20960;-76
2021/07/23 05:31:30;;;;;;;21.88;12.40;;;16.10;43.50;;;;;;5055912;28;20434;-76
2021/07/23 05:34:01;;;;;;;17.58;11.85;;;16.20;41.90;;;;;;5057118;28;20397;-75
2021/07/23 05:36:27;;;;;;;18.58;12.48;;;16.30;42.60;;;;;;5057890;28;20428;-77
2021/07/23 05:38:53;;;;;;;20.20;12.20;;;16.30;42.00;;;;;;5056957;28;20886;-76
2021/07/23 05:41:19;;;;;;;17.88;12.20;;;16.40;41.50;;;;;;5055322;28;20456;-77
2021/07/23 05:43:44;;;;;;;21.42;11.43;;;16.40;41.90;;;;;;5052301;28;20461;-76
2021/07/23 05:46:10;;;;;;;19.50;13.10;;;16.40;41.60;;;;;;5053576;28;20417;-75
2021/07/23 05:48:37;;;;;;;21.20;12.20;;;16.50;41.40;;;;;;5055185;28;20397;-77
2021/07/23 05:51:03;;;;;;;24.23;12.57;;;16.60;40.90;;;;;;5054718;28;20599;-78
2021/07/23 05:53:29;;;;;;;25.48;13.25;;;16.60;40.60;;;;;;5053770;28;20385;-76
2021/07/23 05:55:54;;;;;;;27.67;13.15;;;16.60;40.70;;;;;;5053393;28;20397;-76
2021/07/23 05:58:20;;;;;;;23.08;12.75;;;16.70;40.30;;;;;;5051946;28;20781;-76
2021/07/23 06:00:46;;;;;;;21.60;12.80;;;16.70;40.20;;;;;;5034082;28;20396;-77
2021/07/23 06:03:12;;;;;;;20.50;12.35;;;16.80;39.80;;;;;;5054660;28;20413;-77
2021/07/23 06:05:37;;;;;;;20.05;12.43;;;16.80;39.40;;;;;;5052866;28;20392;-76
2021/07/23 06:08:03;;;;;;;17.13;11.40;;;16.80;39.80;;;;;;5050769;28;20461;-77
2021/07/23 06:10:28;;;;;;;18.33;12.60;;;16.80;40.10;;;;;;5053308;28;20397;-75
2021/07/23 06:12:54;;;;;;;16.73;11.57;;;16.80;40.10;;;;;;5053586;28;20386;-76
2021/07/23 06:15:20;;;;;;;19.15;12.35;;;16.80;40.10;;;;;;5053964;28;20401;-78
2021/07/23 06:17:45;;;;;;;17.15;12.27;;;16.90;39.90;;;;;;5052415;28;20408;-77
2021/07/23 06:20:11;;;;;;;18.07;12.23;;;17.00;39.50;;;;;;5052303;28;20389;-77
2021/07/23 06:22:37;;;;;;;15.97;12.03;;;17.10;39.70;;;;;;5052178;28;20458;-77
2021/07/23 06:25:02;;;;;;;22.23;11.77;;;17.30;39.10;;;;;;5034685;28;20395;-76
2021/07/23 06:27:28;;;;;;;18.92;11.85;;;17.30;38.70;;;;;;5051859;28;20400;-77
2021/07/23 06:29:55;;;;;;;17.07;13.00;;;17.30;38.40;;;;;;5034853;28;20447;-75
2021/07/23 06:32:22;;;;;;;18.07;11.80;;;17.40;38.50;;;;;;5052788;28;20389;-77
2021/07/23 06:34:48;;;;;;;17.40;12.52;;;17.50;38.20;;;;;;5054666;28;20761;-77
2021/07/23 06:37:20;;;;;;;19.05;11.90;;;17.60;37.80;;;;;;5054404;28;20485;-77
2021/07/23 06:39:47;;;;;;;21.25;11.77;;;17.50;37.80;;;;;;5054367;28;20831;-77
2021/07/23 06:42:12;;;;;;;20.33;12.40;;;17.50;38.20;;;;;;5052109;28;20439;-76
2021/07/23 06:44:38;;;;;;;20.60;12.27;;;17.70;38.10;;;;;;5053973;28;20397;-77
2021/07/23 06:47:03;;;;;;;17.07;11.57;;;17.80;37.50;;;;;;5052368;28;20406;-77
2021/07/23 06:49:29;;;;;;;17.95;11.70;;;17.90;36.70;;;;;;5051340;28;20914;-76
2021/07/23 06:51:54;;;;;;;17.88;11.65;;;18.00;36.20;;;;;;5051432;28;20388;-75
2021/07/23 06:54:20;;;;;;;17.90;11.30;;;18.00;36.40;;;;;;5051791;28;20389;-77
2021/07/23 06:56:46;;;;;;;19.83;11.60;;;18.10;35.90;;;;;;5052456;28;20463;-77
2021/07/23 06:59:11;;;;;;;21.67;11.50;;;18.20;35.80;;;;;;5035510;28;20876;-76
2021/07/23 07:01:37;;;;;;;17.23;11.38;;;18.30;36.00;;;;;;5048931;28;21062;-76
2021/07/23 07:04:02;;;;;;;16.77;11.07;;;18.30;35.80;;;;;;5051978;28;20393;-77
2021/07/23 07:06:28;;;;;;;16.90;11.83;;;18.40;35.10;;;;;;5051982;28;20477;-76
2021/07/23 07:08:53;;;;;;;21.85;10.77;;;18.40;34.70;;;;;;5052255;28;20429;-76
2021/07/23 07:11:19;;;;;;;15.53;10.50;;;18.50;34.90;;;;;;5053032;28;20382;-76
2021/07/23 07:13:45;;;;;;;18.20;10.73;;;18.60;34.90;;;;;;5036562;28;20444;-76
2021/07/23 07:16:11;;;;;;;15.15;10.73;;;18.60;34.60;;;;;;5037357;28;20411;-76
2021/07/23 07:18:37;;;;;;;21.88;11.00;;;18.60;34.70;;;;;;5055843;28;20389;-76
2021/07/23 07:21:04;;;;;;;18.53;10.33;;;18.80;34.30;;;;;;5056471;28;20477;-76
2021/07/23 07:23:30;;;;;;;18.98;10.68;;;19.00;33.40;;;;;;5054620;28;20381;-76
2021/07/23 07:25:55;;;;;;;16.75;10.50;;;19.20;33.00;;;;;;5055176;28;20388;-77
2021/07/23 07:28:21;;;;;;;16.30;10.20;;;19.30;33.20;;;;;;5053131;28;20388;-77
2021/07/23 07:30:47;;;;;;;16.97;9.97;;;19.40;32.60;;;;;;5023503;28;20387;-77
2021/07/23 07:33:13;;;;;;;14.25;9.30;;;19.50;32.20;;;;;;5053597;28;20409;-77
2021/07/23 07:35:42;;;;;;;14.83;9.80;;;19.60;31.80;;;;;;5054527;28;20447;-77
2021/07/23 07:38:07;;;;;;;18.60;8.77;;;19.70;30.60;;;;;;5058353;28;20593;-78
2021/07/23 07:40:33;;;;;;;14.57;8.80;;;19.70;29.60;;;;;;5059245;28;20424;-78
2021/07/23 07:42:58;;;;;;;12.27;8.97;;;19.70;29.50;;;;;;5059807;28;20442;-78
2021/07/23 07:45:24;;;;;;;18.17;9.43;;;19.80;29.80;;;;;;5050831;28;20461;-77
2021/07/23 07:47:50;;;;;;;14.70;8.65;;;19.80;29.10;;;;;;5052257;28;20722;-78
2021/07/23 07:50:16;;;;;;;13.50;8.20;;;19.90;29.90;;;;;;5052970;28;20397;-76
2021/07/23 07:52:41;;;;;;;14.03;9.87;;;20.10;29.20;;;;;;5051744;28;20464;-77
2021/07/23 07:55:07;;;;;;;14.73;9.00;;;20.10;28.70;;;;;;5052586;28;20476;-76
2021/07/23 07:57:33;;;;;;;11.10;8.60;;;20.20;27.80;;;;;;5033174;28;20406;-77
2021/07/23 07:59:59;;;;;;;17.55;9.50;;;20.30;28.60;;;;;;5032463;28;20457;-77
2021/07/23 08:02:24;;;;;;;14.90;9.63;;;20.50;27.90;;;;;;5049163;28;20400;-76
2021/07/23 08:04:50;;;;;;;13.50;9.65;;;20.50;27.30;;;;;;5052629;28;20896;-78
2021/07/23 08:07:20;;;;;;;15.13;9.33;;;20.50;27.70;;;;;;5057803;28;20398;-77
2021/07/23 08:09:52;;;;;;;26.07;10.20;;;20.50;26.90;;;;;;5054500;28;20437;-77
2021/07/23 08:12:18;;;;;;;10.45;8.73;;;20.50;27.50;;;;;;5049537;28;20474;-78
2021/07/23 08:14:44;;;;;;;17.98;8.57;;;20.60;27.30;;;;;;5053534;28;20424;-77
2021/07/23 08:17:10;;;;;;;16.70;8.63;;;20.80;26.60;;;;;;5039586;28;20408;-76
2021/07/23 08:19:37;;;;;;;11.52;8.02;;;20.90;25.80;;;;;;5052664;28;20390;-77
2021/07/23 08:22:04;;;;;;;14.00;8.60;;;21.00;25.90;;;;;;5056623;28;20420;-78
2021/07/23 08:24:29;;;;;;;14.05;8.50;;;20.90;25.70;;;;;;5038283;28;20393;-77
2021/07/23 08:26:55;;;;;;;15.30;8.60;;;21.00;26.20;;;;;;5053213;28;20416;-78
2021/07/23 08:29:21;;;;;;;11.53;9.30;;;21.10;24.90;;;;;;5032999;28;20662;-78
2021/07/23 08:31:46;;;;;;;18.98;9.13;;;21.00;25.00;;;;;;5052180;28;20393;-77
2021/07/23 08:34:12;;;;;;;12.77;8.53;;;21.00;25.00;;;;;;5052589;28;20386;-76
2021/07/23 08:36:37;;;;;;;10.10;8.50;;;21.00;25.40;;;;;;5052375;28;20405;-77
2021/07/23 08:39:03;;;;;;;15.05;8.40;;;21.10;25.30;;;;;;5051095;28;20539;-77
2021/07/23 08:41:30;;;;;;;16.17;8.33;;;21.20;25.10;;;;;;5050656;28;20374;-77
2021/07/23 08:43:55;;;;;;;17.45;9.00;;;21.40;24.70;;;;;;5050683;28;20459;-78
2021/07/23 08:46:21;;;;;;;13.50;8.98;;;21.50;24.20;;;;;;5033945;28;20394;-78
2021/07/23 08:48:46;;;;;;;17.93;9.00;;;21.50;23.70;;;;;;5053760;28;20410;-78
2021/07/23 08:51:21;;;;;;;15.13;8.90;;;21.40;24.10;;;;;;5032880;28;20400;-77
2021/07/23 08:53:47;;;;;;;11.73;8.43;;;21.20;24.60;;;;;;5050502;28;20413;-77
2021/07/23 08:56:13;;;;;;;14.25;9.75;;;21.40;24.40;;;;;;5051187;28;20403;-77
2021/07/23 08:58:38;;;;;;;12.70;8.88;;;21.50;22.50;;;;;;5040868;28;20471;-77
2021/07/23 09:01:06;;;;;;;14.57;9.10;;;21.50;22.60;;;;;;5035383;28;20455;-78
2021/07/23 09:03:33;;;;;;;15.80;10.02;;;21.30;22.80;;;;;;5051646;28;20403;-79
2021/07/23 09:06:16;;;;;;;11.98;9.30;;;21.10;23.90;;;;;;5053527;28;20393;-76
2021/07/23 09:08:50;;;;;;;16.27;9.45;;;21.10;25.10;;;;;;5052825;28;20389;-76
2021/07/23 09:11:27;;;;;;;14.93;9.70;;;21.20;24.50;;;;;;5053238;28;20531;-76
2021/07/23 09:14:11;;;;;;;15.55;9.15;;;21.20;23.70;;;;;;5052218;28;20437;-76
2021/07/23 09:16:36;;;;;;;14.15;9.75;;;21.30;24.10;;;;;;5036878;28;20459;-76
2021/07/23 09:19:09;;;;;;;14.37;9.53;;;21.30;23.40;;;;;;5053641;28;20393;-77
2021/07/23 09:21:39;;;;;;;13.60;10.00;;;21.40;23.60;;;;;;5054004;28;20389;-77
2021/07/23 09:24:06;;;;;;;15.75;9.05;;;21.40;24.00;;;;;;5052916;28;20390;-77
2021/07/23 09:26:42;;;;;;;15.87;9.43;;;21.40;22.50;;;;;;5054666;28;20556;-75
2021/07/23 09:29:08;;;;;;;15.05;9.70;;;21.30;23.00;;;;;;5057188;28;20484;-74
2021/07/23 09:31:34;;;;;;;13.15;8.60;;;21.40;23.70;;;;;;5052817;28;20385;-75
2021/07/23 09:34:00;;;;;;;19.83;9.15;;;21.60;23.30;;;;;;5050893;28;20432;-76
2021/07/23 09:36:27;;;;;;;19.27;10.07;;;21.70;22.90;;;;;;5047130;28;20463;-77
2021/07/23 09:39:04;;;;;;;13.95;10.23;;;21.70;22.20;;;;;;5039443;28;20494;-76
2021/07/23 09:41:29;;;;;;;16.10;10.10;;;21.70;22.40;;;;;;5042990;28;20491;-75
2021/07/23 09:44:02;;;;;;;11.80;8.90;;;21.70;22.80;;;;;;5051492;28;20435;-76
2021/07/23 09:46:29;;;;;;;12.20;9.57;;;22.00;22.10;;;;;;5051995;28;20866;-75
2021/07/23 09:48:57;;;;;;;16.77;9.47;;;21.80;21.70;;;;;;5051918;28;20413;-75
2021/07/23 09:51:27;;;;;;;14.57;10.50;;;21.80;22.60;;;;;;5032147;28;20394;-76
2021/07/23 09:53:54;;;;;;;13.40;8.70;;;22.10;22.10;;;;;;5044321;28;20878;-76
2021/07/23 09:56:22;;;;;;;15.77;9.70;;;22.30;21.90;;;;;;5027305;28;20409;-75
2021/07/23 09:58:54;;;;;;;17.50;10.27;;;22.50;21.90;;;;;;5041900;28;20403;-74
2021/07/23 10:01:25;;;;;;;15.82;10.75;;;22.50;21.80;;;;;;5042293;28;20476;-74
2021/07/23 10:03:53;;;;;;;18.52;10.60;;;22.50;21.00;;;;;;5051933;28;20436;-75
2021/07/23 10:06:36;;;;;;;22.63;11.95;;;22.40;21.10;;;;;;5051838;28;20401;-75
2021/07/23 10:09:11;;;;;;;14.95;10.75;;;22.50;20.80;;;;;;5052051;28;20420;-76
2021/07/23 10:11:41;;;;;;;18.23;10.60;;;22.40;20.70;;;;;;5052291;28;20404;-75
2021/07/23 10:14:09;;;;;;;18.60;11.95;;;22.40;20.80;;;;;;5053157;28;20459;-76
2021/07/23 10:16:38;;;;;;;16.90;11.45;;;22.30;21.60;;;;;;5055305;28;20525;-75
2021/07/23 10:19:06;;;;;;;17.58;10.55;;;22.30;21.00;;;;;;5055071;28;20409;-76
2021/07/23 10:21:32;;;;;;;14.20;9.90;;;22.30;22.00;;;;;;5054697;28;20392;-75
2021/07/23 10:23:59;;;;;;;21.13;11.33;;;22.50;21.60;;;;;;5055537;28;20377;-75
2021/07/23 10:26:29;;;;;;;17.00;10.68;;;22.70;21.30;;;;;;5054573;28;20575;-75
2021/07/23 10:28:57;;;;;;;17.73;11.52;;;22.80;19.90;;;;;;5031039;28;20395;-75
2021/07/23 10:31:27;;;;;;;17.77;10.70;;;22.70;19.80;;;;;;5031573;28;20387;-76
2021/07/23 10:33:53;;;;;;;18.88;11.85;;;22.70;20.00;;;;;;5031895;28;20390;-76
2021/07/23 10:36:31;;;;;;;15.35;10.75;;;22.80;19.60;;;;;;5030210;28;20461;-75
2021/07/23 10:39:06;;;;;;;14.00;10.32;;;22.80;19.90;;;;;;5030541;28;20387;-75
2021/07/23 10:41:40;;;;;;;19.05;11.75;;;22.80;19.60;;;;;;5047359;28;20484;-75
2021/07/23 10:44:11;;;;;;;15.98;10.32;;;22.90;19.30;;;;;;5033643;28;20416;-76
2021/07/23 10:46:43;;;;;;;18.60;10.55;;;23.10;18.20;;;;;;5051445;28;20897;-75
2021/07/23 10:49:31;;;;;;;23.30;10.82;;;23.10;19.20;;;;;;5053422;28;20401;-74
2021/07/23 10:52:01;;;;;;;18.52;10.57;;;23.30;18.70;;;;;;5050917;28;20453;-74
2021/07/23 10:54:28;;;;;;;17.03;10.07;;;23.40;18.00;;;;;;5050968;28;20396;-75
2021/07/23 10:56:58;;;;;;;17.65;11.27;;;23.60;18.30;;;;;;5052354;28;20409;-75
2021/07/23 10:59:41;;;;;;;21.98;14.88;;;23.80;16.50;;;;;;5049746;28;20476;-77
2021/07/23 11:02:11;;;;;;;16.88;10.80;;;23.50;17.00;;;;;;5033095;28;20472;-75
2021/07/23 11:04:38;;;;;;;13.02;9.13;;;23.50;16.60;;;;;;5033470;28;20466;-77
2021/07/23 11:07:05;;;;;;;13.40;9.80;;;23.60;17.00;;;;;;5031034;28;20744;-76
2021/07/23 11:09:31;;;;;;;29.33;17.85;;;23.80;15.50;;;;;;5041334;28;20612;-74
2021/07/23 11:12:18;;;;;;;16.88;10.98;;;23.80;16.50;;;;;;5050973;28;20890;-76
2021/07/23 11:14:54;;;;;;;16.00;10.10;;;23.70;16.50;;;;;;5031501;28;20769;-74
2021/07/23 11:17:20;;;;;;;17.13;9.70;;;23.90;16.80;;;;;;5049294;28;20488;-75
2021/07/23 11:19:52;;;;;;;16.27;9.63;;;23.90;16.20;;;;;;5050665;28;20472;-76
2021/07/23 11:22:26;;;;;;;15.20;9.60;;;23.70;16.20;;;;;;5049790;28;20411;-75
2021/07/23 11:24:59;;;;;;;17.25;10.45;;;23.60;16.90;;;;;;5034181;28;20431;-76
2021/07/23 11:27:30;;;;;;;16.25;10.98;;;23.60;15.70;;;;;;5050900;28;20683;-74
2021/07/23 11:29:57;;;;;;;19.38;11.18;;;23.90;16.60;;;;;;5037903;28;20701;-76
2021/07/23 11:32:23;;;;;;;17.48;10.40;;;24.00;16.60;;;;;;5030619;28;20391;-75
2021/07/23 11:35:08;;;;;;;17.07;11.10;;;24.10;16.80;;;;;;5038145;28;20908;-75
2021/07/23 11:37:36;;;;;;;17.58;10.88;;;24.10;15.80;;;;;;5030952;28;20496;-75
2021/07/23 11:40:03;;;;;;;16.60;10.53;;;24.10;16.10;;;;;;5047799;28;20393;-76
2021/07/23 11:42:37;;;;;;;16.23;10.27;;;24.10;15.30;;;;;;5049716;28;20433;-75
2021/07/23 11:45:09;;;;;;;20.15;10.70;;;24.20;16.80;;;;;;5050223;28;20396;-74
2021/07/23 11:47:57;;;;;;;16.85;11.77;;;24.00;16.30;;;;;;5045274;28;20485;-75
2021/07/23 11:50:26;;;;;;;19.73;11.75;;;24.00;16.40;;;;;;5031455;28;20483;-75
2021/07/23 11:53:05;;;;;;;16.88;10.90;;;24.20;15.80;;;;;;5053234;28;20404;-74
2021/07/23 11:55:41;;;;;;;15.18;10.73;;;24.30;16.60;;;;;;5050091;28;20402;-75
2021/07/23 11:58:08;;;;;;;12.63;8.73;;;24.60;14.80;;;;;;5054934;28;20214;-77
2021/07/23 12:00:34;;;;;;;14.60;8.50;;;24.70;15.20;;;;;;5059964;28;20441;-77
2021/07/23 12:03:18;;;;;;;15.43;9.30;;;24.60;14.90;;;;;;5058783;28;20508;-76
2021/07/23 12:05:44;;;;;;;13.50;8.53;;;24.70;14.80;;;;;;5053047;28;20406;-77
2021/07/23 12:08:10;;;;;;;16.13;9.20;;;24.70;15.20;;;;;;5051364;28;20429;-77
2021/07/23 12:10:36;;;;;;;23.63;10.77;;;24.50;15.30;;;;;;5050706;28;20556;-77
2021/07/23 12:13:06;;;;;;;15.20;9.50;;;24.70;14.90;;;;;;5052185;28;20274;-77
2021/07/23 12:15:47;;;;;;;13.20;8.90;;;24.60;13.80;;;;;;5051360;28;20434;-75
2021/07/23 12:18:19;;;;;;;11.17;8.20;;;24.50;13.10;;;;;;5051640;28;20506;-75
2021/07/23 12:20:45;;;;;;;12.60;7.87;;;24.60;14.70;;;;;;5052337;28;20457;-77
2021/07/23 12:23:21;;;;;;;18.23;9.60;;;24.60;15.80;;;;;;5051417;28;20453;-77
2021/07/23 12:25:46;;;;;;;9.47;7.03;;;24.90;14.30;;;;;;5052309;28;20442;-76
2021/07/23 12:28:14;;;;;;;10.43;7.80;;;25.00;13.10;;;;;;5052749;28;20836;-76
2021/07/23 12:30:42;;;;;;;13.23;8.10;;;25.20;12.80;;;;;;5034182;28;20278;-77